createdAt,value
2023-06-26T00:02:18.540Z,7.45
2023-06-26T00:04:45.468Z,10.10
2023-06-26T00:07:12.565Z,8.73
2023-06-26T00:09:39.415Z,7.70
2023-06-26T00:12:06.743Z,8.90
2023-06-26T00:14:33.427Z,8.98
2023-06-26T00:16:59.929Z,13.38
2023-06-26T00:19:26.443Z,8.02
2023-06-26T00:21:53.370Z,11.02
2023-06-26T00:24:20.423Z,12.25
2023-06-26T00:26:48.382Z,9.82
2023-06-26T00:29:15.296Z,7.88
2023-06-26T00:31:42.139Z,7.72
2023-06-26T00:34:08.798Z,11.10
2023-06-26T00:36:35.698Z,6.30
2023-06-26T00:39:02.347Z,9.23
2023-06-26T00:41:29.106Z,9.90
2023-06-26T00:43:55.650Z,7.35
2023-06-26T00:46:23.122Z,8.57
2023-06-26T00:48:50.244Z,7.85
2023-06-26T00:51:17.709Z,7.05
2023-06-26T00:53:44.904Z,8.88
2023-06-26T00:56:12.498Z,10.77
2023-06-26T00:58:39.010Z,8.20
2023-06-26T01:01:07.173Z,8.68
2023-06-26T01:03:33.737Z,8.68
2023-06-26T01:06:01.308Z,10.50
2023-06-26T01:08:28.654Z,9.85
2023-06-26T01:10:55.279Z,9.35
2023-06-26T01:13:22.429Z,8.65
2023-06-26T01:15:50.176Z,8.60
2023-06-26T01:18:17.857Z,8.00
2023-06-26T01:20:46.050Z,9.10
2023-06-26T01:23:40.617Z,7.40
2023-06-26T01:26:10.187Z,10.88
2023-06-26T01:28:43.264Z,8.07
2023-06-26T01:31:12.032Z,9.00
2023-06-26T01:33:39.905Z,8.65
2023-06-26T01:36:07.321Z,9.02
2023-06-26T01:38:35.666Z,9.07
2023-06-26T01:41:02.925Z,9.63
2023-06-26T01:44:00.666Z,8.20
2023-06-26T01:46:47.957Z,8.30
2023-06-26T01:50:00.288Z,10.75
2023-06-26T01:52:37.318Z,7.70
2023-06-26T01:55:24.967Z,9.88
2023-06-26T01:57:55.517Z,9.07
2023-06-26T02:00:23.307Z,8.45
2023-06-26T02:02:49.973Z,7.93
2023-06-26T02:05:17.185Z,8.40
2023-06-26T02:07:44.855Z,9.40
2023-06-26T02:10:11.777Z,8.27
2023-06-26T02:12:38.785Z,8.75
2023-06-26T02:15:07.494Z,8.18
2023-06-26T02:17:34.598Z,8.57
2023-06-26T02:20:01.333Z,9.75
2023-06-26T02:22:29.645Z,8.18
2023-06-26T02:24:56.362Z,7.50
2023-06-26T02:27:22.919Z,8.02
2023-06-26T02:29:49.716Z,9.68
2023-06-26T02:32:16.802Z,9.20
2023-06-26T02:34:43.701Z,8.23
2023-06-26T02:37:11.482Z,8.88
2023-06-26T02:39:38.044Z,9.30
2023-06-26T02:42:05.062Z,7.80
2023-06-26T02:44:31.663Z,8.20
2023-06-26T02:46:58.612Z,9.63
2023-06-26T02:49:25.137Z,8.65
2023-06-26T02:51:52.047Z,10.05
2023-06-26T02:54:18.589Z,11.60
2023-06-26T02:56:47.968Z,8.50
2023-06-26T02:59:15.096Z,8.23
2023-06-26T03:01:41.981Z,9.00
2023-06-26T03:04:09.222Z,8.80
2023-06-26T03:06:35.935Z,9.60
2023-06-26T03:09:03.994Z,9.00
2023-06-26T03:11:30.512Z,9.18
2023-06-26T03:13:57.409Z,9.55
2023-06-26T03:16:23.943Z,8.38
2023-06-26T03:18:50.479Z,7.70
2023-06-26T03:21:17.189Z,10.30
2023-06-26T03:23:43.791Z,8.55
2023-06-26T03:26:10.918Z,11.13
2023-06-26T03:28:37.568Z,7.55
2023-06-26T03:31:04.252Z,9.02
2023-06-26T03:33:31.725Z,8.13
2023-06-26T03:35:58.687Z,7.95
2023-06-26T03:38:27.314Z,7.78
2023-06-26T03:40:54.289Z,9.85
2023-06-26T03:43:20.973Z,10.35
2023-06-26T03:45:47.782Z,8.68
2023-06-26T03:48:15.012Z,8.63
2023-06-26T03:50:43.486Z,9.68
2023-06-26T03:53:10.236Z,8.38
2023-06-26T03:55:37.146Z,10.85
2023-06-26T03:58:04.130Z,10.32
2023-06-26T04:00:31.118Z,8.93
2023-06-26T04:02:58.466Z,9.02
2023-06-26T04:05:25.179Z,8.93
2023-06-26T04:07:52.694Z,9.00
2023-06-26T04:10:19.697Z,10.70
2023-06-26T04:12:46.338Z,8.02
2023-06-26T04:15:13.059Z,8.93
2023-06-26T04:17:39.637Z,8.45
2023-06-26T04:20:07.495Z,8.68
2023-06-26T04:22:34.658Z,9.93
2023-06-26T04:25:05.292Z,9.25
2023-06-26T04:27:34.296Z,10.25
2023-06-26T04:30:02.316Z,7.40
2023-06-26T04:32:28.969Z,8.18
2023-06-26T04:34:55.496Z,10.52
2023-06-26T04:37:23.269Z,9.43
2023-06-26T04:39:49.804Z,9.73
2023-06-26T04:42:16.799Z,8.65
2023-06-26T04:44:43.574Z,9.23
2023-06-26T04:47:51.443Z,8.18
2023-06-26T04:50:23.936Z,9.13
2023-06-26T04:52:50.545Z,8.13
2023-06-26T04:55:17.238Z,9.85
2023-06-26T04:57:43.803Z,10.10
2023-06-26T05:00:12.423Z,8.93
2023-06-26T05:02:39.041Z,8.45
2023-06-26T05:05:05.964Z,9.65
2023-06-26T05:07:32.713Z,6.35
2023-06-26T05:09:59.269Z,10.02
2023-06-26T05:12:25.826Z,9.68
2023-06-26T05:14:52.432Z,9.20
2023-06-26T05:17:19.059Z,8.93
2023-06-26T05:19:45.764Z,7.72
2023-06-26T05:22:14.037Z,8.88
2023-06-26T05:24:44.057Z,8.93
2023-06-26T05:27:11.993Z,8.73
2023-06-26T05:29:39.180Z,9.70
2023-06-26T05:32:07.664Z,8.77
2023-06-26T05:34:35.328Z,8.25
2023-06-26T05:37:03.056Z,9.57
2023-06-26T05:39:29.847Z,9.63
2023-06-26T05:41:57.854Z,10.40
2023-06-26T05:44:24.735Z,9.50
2023-06-26T05:46:51.878Z,8.73
2023-06-26T05:49:19.483Z,13.77
2023-06-26T05:51:46.322Z,9.48
2023-06-26T05:54:14.302Z,9.43
2023-06-26T05:56:43.441Z,8.65
2023-06-26T05:59:12.942Z,11.02
2023-06-26T06:01:39.775Z,9.20
2023-06-26T06:04:06.427Z,7.82
2023-06-26T06:06:33.031Z,8.98
2023-06-26T06:08:59.651Z,8.75
2023-06-26T06:11:26.134Z,9.55
2023-06-26T06:13:53.114Z,8.77
2023-06-26T06:16:19.636Z,9.60
2023-06-26T06:18:46.282Z,8.88
2023-06-26T06:21:12.815Z,10.23
2023-06-26T06:23:39.746Z,8.00
2023-06-26T06:26:06.276Z,9.13
2023-06-26T06:28:32.804Z,8.15
2023-06-26T06:31:00.351Z,9.98
2023-06-26T06:33:27.273Z,9.02
2023-06-26T06:35:54.014Z,8.73
2023-06-26T06:38:20.606Z,7.65
2023-06-26T06:40:47.064Z,10.38
2023-06-26T06:43:14.134Z,7.45
2023-06-26T06:45:40.762Z,7.65
2023-06-26T06:48:08.929Z,11.30
2023-06-26T06:50:36.182Z,8.23
2023-06-26T06:53:03.165Z,7.65
2023-06-26T06:55:30.170Z,9.48
2023-06-26T06:57:57.343Z,7.13
2023-06-26T07:00:24.095Z,6.38
2023-06-26T07:02:50.866Z,8.15
2023-06-26T07:05:17.634Z,8.25
2023-06-26T07:07:44.370Z,10.88
2023-06-26T07:10:13.142Z,9.70
2023-06-26T07:12:40.204Z,11.50
2023-06-26T07:15:07.620Z,7.40
2023-06-26T07:17:35.449Z,9.38
2023-06-26T07:20:05.373Z,9.55
2023-06-26T07:22:32.356Z,19.10
2023-06-26T07:24:58.961Z,10.20
2023-06-26T07:27:26.683Z,8.68
2023-06-26T07:29:53.256Z,10.60
2023-06-26T07:32:19.904Z,9.80
2023-06-26T07:34:47.529Z,12.07
2023-06-26T07:37:14.470Z,10.63
2023-06-26T07:39:41.144Z,12.07
2023-06-26T07:42:07.777Z,20.85
2023-06-26T07:44:34.892Z,9.75
2023-06-26T07:47:01.492Z,11.77
2023-06-26T07:49:28.249Z,10.05
2023-06-26T07:51:54.972Z,15.00
2023-06-26T07:54:21.845Z,11.20
2023-06-26T07:57:02.381Z,9.50
2023-06-26T07:59:30.903Z,10.45
2023-06-26T08:01:58.469Z,8.77
2023-06-26T08:04:27.610Z,15.57
2023-06-26T08:06:57.208Z,12.48
2023-06-26T08:09:25.662Z,12.80
2023-06-26T08:11:52.691Z,9.38
2023-06-26T08:14:19.625Z,12.18
2023-06-26T08:16:47.253Z,9.93
2023-06-26T08:19:15.208Z,10.75
2023-06-26T08:21:43.011Z,14.50
2023-06-26T08:24:10.220Z,11.02
2023-06-26T08:26:37.701Z,11.65
2023-06-26T08:29:11.788Z,16.17
2023-06-26T08:31:39.705Z,11.07
2023-06-26T08:34:07.021Z,15.65
2023-06-26T08:36:33.632Z,12.48
2023-06-26T08:39:00.360Z,14.55
2023-06-26T08:41:27.151Z,13.27
2023-06-26T08:43:53.865Z,11.80
2023-06-26T08:46:20.997Z,10.85
2023-06-26T08:48:57.377Z,8.55
2023-06-26T08:51:27.154Z,16.50
2023-06-26T08:54:01.558Z,11.05
2023-06-26T08:56:43.210Z,11.75
2023-06-26T08:59:11.969Z,10.50
2023-06-26T09:01:39.409Z,11.00
2023-06-26T09:04:06.993Z,9.73
2023-06-26T09:06:34.449Z,8.18
2023-06-26T09:09:01.083Z,9.02
2023-06-26T09:11:27.905Z,10.95
2023-06-26T09:13:56.648Z,8.52
2023-06-26T09:16:28.156Z,12.15
2023-06-26T09:18:55.620Z,9.93
2023-06-26T09:21:22.818Z,9.13
2023-06-26T09:23:50.984Z,8.52
2023-06-26T09:26:17.874Z,8.57
2023-06-26T09:28:44.860Z,7.72
2023-06-26T09:31:11.474Z,11.35
2023-06-26T09:33:39.552Z,8.50
2023-06-26T09:36:19.920Z,11.05
2023-06-26T09:38:46.445Z,10.93
2023-06-26T09:41:16.423Z,8.82
2023-06-26T09:43:50.787Z,10.60
2023-06-26T09:46:19.207Z,10.20
2023-06-26T09:48:45.901Z,8.90
2023-06-26T09:51:14.827Z,8.27
2023-06-26T09:53:43.368Z,9.32
2023-06-26T09:56:19.872Z,11.52
2023-06-26T09:58:46.798Z,14.00
2023-06-26T10:01:14.162Z,13.52
2023-06-26T10:03:41.193Z,5.35
2023-06-26T10:06:12.941Z,8.10
2023-06-26T10:08:41.096Z,11.93
2023-06-26T10:11:12.962Z,10.48
2023-06-26T10:13:43.418Z,8.05
2023-06-26T10:16:12.064Z,8.82
2023-06-26T10:18:40.282Z,7.88
2023-06-26T10:21:09.350Z,8.60
2023-06-26T10:23:40.147Z,6.60
2023-06-26T10:26:08.613Z,8.65
2023-06-26T10:28:36.512Z,6.97
2023-06-26T10:31:05.798Z,6.90
2023-06-26T10:33:33.008Z,6.53
2023-06-26T10:36:29.719Z,5.18
2023-06-26T10:38:59.385Z,8.57
2023-06-26T10:41:26.711Z,5.63
2023-06-26T10:44:18.197Z,7.28
2023-06-26T10:46:55.166Z,7.97
2023-06-26T10:49:26.468Z,5.93
2023-06-26T10:51:55.035Z,5.65
2023-06-26T10:54:22.753Z,8.48
2023-06-26T10:56:51.232Z,6.28
2023-06-26T10:59:20.872Z,6.60
2023-06-26T11:01:56.005Z,6.93
2023-06-26T11:04:42.189Z,5.38
2023-06-26T11:07:25.281Z,6.43
2023-06-26T11:10:09.064Z,4.57
2023-06-26T11:12:45.455Z,7.47
2023-06-26T11:15:17.109Z,6.65
2023-06-26T11:17:45.099Z,6.82
2023-06-26T11:20:14.849Z,8.00
2023-06-26T11:22:43.593Z,4.10
2023-06-26T11:25:11.214Z,9.65
2023-06-26T11:27:44.755Z,6.35
2023-06-26T11:30:24.132Z,6.65
2023-06-26T11:32:50.984Z,5.68
2023-06-26T11:35:47.526Z,6.60
2023-06-26T11:38:14.788Z,4.05
2023-06-26T11:40:41.837Z,5.97
2023-06-26T11:43:09.228Z,6.47
2023-06-26T11:45:36.528Z,4.70
2023-06-26T11:48:03.497Z,6.88
2023-06-26T11:50:30.186Z,6.10
2023-06-26T11:52:58.708Z,4.03
2023-06-26T11:55:26.266Z,6.20
2023-06-26T11:57:57.823Z,6.93
2023-06-26T12:00:25.250Z,4.15
2023-06-26T12:02:53.113Z,6.32
2023-06-26T12:05:20.986Z,3.92
2023-06-26T12:07:48.737Z,7.53
2023-06-26T12:10:16.579Z,7.40
2023-06-26T12:12:44.172Z,4.55
2023-06-26T12:15:16.478Z,9.75
2023-06-26T12:17:44.475Z,5.53
2023-06-26T12:20:23.776Z,4.88
2023-06-26T12:22:50.818Z,5.20
2023-06-26T12:25:27.494Z,9.77
2023-06-26T12:27:54.015Z,8.45
2023-06-26T12:30:20.986Z,8.00
2023-06-26T12:32:48.146Z,4.68
2023-06-26T12:35:17.293Z,7.43
2023-06-26T12:37:47.228Z,7.25
2023-06-26T12:40:20.074Z,5.30
2023-06-26T12:42:46.977Z,7.15
2023-06-26T12:45:31.118Z,6.75
2023-06-26T12:48:11.850Z,4.10
2023-06-26T12:50:44.583Z,7.35
2023-06-26T12:53:11.395Z,6.85
2023-06-26T12:55:38.431Z,4.47
2023-06-26T12:58:04.926Z,3.35
2023-06-26T13:00:33.089Z,6.38
2023-06-26T13:02:59.876Z,5.90
2023-06-26T13:05:26.730Z,5.03
2023-06-26T13:07:54.665Z,6.03
2023-06-26T13:10:21.213Z,3.05
2023-06-26T13:12:47.890Z,4.22
2023-06-26T13:15:14.385Z,3.45
2023-06-26T13:17:40.995Z,4.22
2023-06-26T13:20:09.722Z,12.45
2023-06-26T13:22:36.731Z,9.32
2023-06-26T13:25:03.447Z,4.40
2023-06-26T13:27:30.225Z,6.38
2023-06-26T13:29:56.757Z,4.18
2023-06-26T13:32:23.263Z,11.20
2023-06-26T13:34:49.920Z,2.58
2023-06-26T13:37:16.426Z,5.97
2023-06-26T13:39:44.474Z,3.70
2023-06-26T13:42:10.990Z,7.28
2023-06-26T13:44:47.965Z,5.82
2023-06-26T13:47:22.937Z,7.00
2023-06-26T13:49:49.636Z,5.45
2023-06-26T13:52:16.466Z,4.30
2023-06-26T13:54:44.370Z,6.32
2023-06-26T13:57:11.243Z,8.95
2023-06-26T13:59:40.976Z,7.47
2023-06-26T14:02:09.051Z,6.20
2023-06-26T14:04:35.868Z,7.03
2023-06-26T14:07:02.590Z,7.85
2023-06-26T14:09:29.498Z,5.03
2023-06-26T14:11:56.145Z,4.43
2023-06-26T14:14:22.722Z,5.68
2023-06-26T14:16:50.123Z,6.68
2023-06-26T14:19:18.541Z,6.32
2023-06-26T14:21:45.358Z,7.82
2023-06-26T14:24:11.972Z,5.13
2023-06-26T14:26:40.216Z,6.90
2023-06-26T14:29:07.230Z,3.75
2023-06-26T14:31:34.401Z,2.10
2023-06-26T14:34:01.222Z,6.15
2023-06-26T14:36:29.057Z,4.30
2023-06-26T14:38:55.914Z,4.90
2023-06-26T14:41:23.240Z,4.38
2023-06-26T14:43:50.304Z,3.10
2023-06-26T14:46:17.354Z,4.30
2023-06-26T14:48:44.501Z,5.18
2023-06-26T14:51:11.061Z,5.80
2023-06-26T14:53:37.588Z,3.65
2023-06-26T14:56:04.657Z,4.63
2023-06-26T14:58:31.225Z,3.53
2023-06-26T15:00:58.768Z,3.75
2023-06-26T15:03:25.552Z,9.90
2023-06-26T15:05:52.892Z,3.35
2023-06-26T15:08:19.434Z,2.00
2023-06-26T15:10:46.459Z,7.95
2023-06-26T15:13:12.979Z,5.65
2023-06-26T15:15:39.731Z,3.85
2023-06-26T15:18:07.681Z,5.93
2023-06-26T15:20:34.380Z,4.63
2023-06-26T15:23:00.983Z,4.45
2023-06-26T15:25:29.275Z,3.80
2023-06-26T15:27:56.019Z,5.43
2023-06-26T15:30:22.566Z,4.60
2023-06-26T15:32:49.400Z,3.72
2023-06-26T15:35:16.278Z,4.43
2023-06-26T15:37:42.803Z,5.50
2023-06-26T15:40:10.122Z,4.80
2023-06-26T15:42:49.342Z,5.60
2023-06-26T15:45:18.717Z,2.80
2023-06-26T15:47:48.567Z,3.38
2023-06-26T15:50:15.597Z,3.28
2023-06-26T15:52:42.248Z,4.95
2023-06-26T15:55:10.706Z,3.40
2023-06-26T15:57:37.551Z,6.50
2023-06-26T16:00:05.521Z,11.57
2023-06-26T16:02:32.291Z,2.40
2023-06-26T16:04:58.871Z,8.32
2023-06-26T16:07:25.700Z,4.88
2023-06-26T16:09:52.228Z,5.90
2023-06-26T16:12:19.212Z,4.35
2023-06-26T16:14:45.766Z,5.57
2023-06-26T16:17:13.470Z,6.63
2023-06-26T16:19:39.965Z,5.53
2023-06-26T16:22:07.921Z,5.30
2023-06-26T16:24:34.518Z,3.75
2023-06-26T16:27:01.370Z,6.40
2023-06-26T16:29:28.217Z,4.45
2023-06-26T16:31:57.612Z,4.20
2023-06-26T16:34:24.314Z,6.05
2023-06-26T16:36:52.123Z,4.65
2023-06-26T16:39:22.975Z,4.32
2023-06-26T16:41:55.569Z,4.78
2023-06-26T16:44:23.211Z,6.90
2023-06-26T16:46:49.982Z,4.85
2023-06-26T16:49:16.987Z,3.00
2023-06-26T16:51:43.563Z,4.10
2023-06-26T16:54:11.052Z,5.13
2023-06-26T16:56:37.949Z,4.55
2023-06-26T16:59:04.567Z,7.10
2023-06-26T17:01:31.267Z,2.97
2023-06-26T17:03:58.290Z,3.88
2023-06-26T17:06:25.249Z,5.47
2023-06-26T17:08:52.100Z,5.38
2023-06-26T17:11:18.713Z,4.22
2023-06-26T17:13:45.452Z,6.90
2023-06-26T17:16:12.642Z,4.25
2023-06-26T17:18:39.332Z,4.20
2023-06-26T17:21:05.864Z,5.30
2023-06-26T17:23:32.900Z,4.53
2023-06-26T17:26:01.960Z,7.60
2023-06-26T17:28:32.077Z,4.50
2023-06-26T17:30:59.016Z,4.47
2023-06-26T17:33:25.595Z,3.15
2023-06-26T17:35:52.100Z,9.43
2023-06-26T17:38:18.605Z,7.07
2023-06-26T17:40:45.324Z,3.90
2023-06-26T17:43:11.834Z,7.07
2023-06-26T17:45:39.164Z,3.97
2023-06-26T17:48:06.166Z,3.97
2023-06-26T17:50:33.193Z,4.32
2023-06-26T17:53:00.231Z,3.83
2023-06-26T17:55:27.069Z,4.32
2023-06-26T17:57:53.719Z,3.95
2023-06-26T18:00:20.898Z,7.82
2023-06-26T18:02:47.622Z,5.65
2023-06-26T18:05:14.776Z,4.15
2023-06-26T18:08:01.656Z,3.60
2023-06-26T18:10:27.919Z,4.30
2023-06-26T18:12:57.060Z,4.55
2023-06-26T18:15:23.992Z,5.25
2023-06-26T18:17:50.557Z,8.50
2023-06-26T18:20:17.312Z,4.32
2023-06-26T18:22:43.967Z,4.80
2023-06-26T18:25:10.498Z,6.75
2023-06-26T18:27:40.686Z,6.57
2023-06-26T18:30:08.351Z,3.60
2023-06-26T18:32:34.895Z,7.15
2023-06-26T18:35:01.711Z,7.28
2023-06-26T18:37:28.467Z,5.07
2023-06-26T18:39:54.998Z,6.10
2023-06-26T18:42:22.737Z,5.28
2023-06-26T18:44:50.408Z,3.92
2023-06-26T18:47:17.103Z,4.55
2023-06-26T18:49:43.715Z,5.15
2023-06-26T18:52:10.684Z,3.80
2023-06-26T18:54:37.208Z,3.60
2023-06-26T18:57:04.110Z,2.53
2023-06-26T18:59:30.616Z,2.85
2023-06-26T19:01:57.364Z,3.45
2023-06-26T19:04:25.112Z,4.43
2023-06-26T19:06:51.983Z,4.57
2023-06-26T19:09:18.908Z,4.68
2023-06-26T19:11:45.899Z,3.05
2023-06-26T19:14:12.435Z,3.88
2023-06-26T19:16:39.655Z,5.03
2023-06-26T19:19:06.915Z,5.45
2023-06-26T19:21:33.852Z,5.50
2023-06-26T19:24:00.363Z,3.05
2023-06-26T19:26:26.878Z,3.55
2023-06-26T19:28:53.443Z,3.50
2023-06-26T19:31:20.150Z,3.90
2023-06-26T19:33:46.769Z,2.63
2023-06-26T19:36:15.914Z,6.85
2023-06-26T19:38:42.527Z,5.82
2023-06-26T19:41:09.184Z,2.00
2023-06-26T19:43:35.665Z,4.72
2023-06-26T19:46:03.101Z,4.20
2023-06-26T19:48:30.794Z,3.88
2023-06-26T19:50:57.589Z,2.97
2023-06-26T19:53:28.058Z,6.70
2023-06-26T19:55:54.612Z,3.40
2023-06-26T19:58:21.401Z,4.95
2023-06-26T20:00:48.033Z,3.83
2023-06-26T20:03:16.169Z,2.33
2023-06-26T20:05:43.349Z,2.95
2023-06-26T20:08:10.126Z,5.47
2023-06-26T20:10:38.018Z,2.90
2023-06-26T20:13:05.045Z,4.05
2023-06-26T20:15:31.747Z,3.70
2023-06-26T20:17:58.326Z,3.55
2023-06-26T20:20:25.254Z,4.10
2023-06-26T20:22:51.882Z,4.22
2023-06-26T20:25:18.928Z,4.85
2023-06-26T20:27:45.444Z,5.70
2023-06-26T20:30:12.442Z,5.18
2023-06-26T20:32:39.368Z,2.67
2023-06-26T20:35:06.509Z,2.42
2023-06-26T20:37:33.470Z,3.25
2023-06-26T20:40:01.032Z,3.88
2023-06-26T20:42:28.004Z,2.38
2023-06-26T20:44:58.259Z,3.08
2023-06-26T20:47:34.385Z,2.05
2023-06-26T20:50:01.892Z,5.05
2023-06-26T20:52:30.376Z,3.20
2023-06-26T20:54:57.579Z,3.30
2023-06-26T20:57:24.223Z,2.92
2023-06-26T20:59:51.057Z,3.22
2023-06-26T21:02:17.770Z,3.33
2023-06-26T21:04:44.426Z,4.00
2023-06-26T21:07:11.148Z,4.30
2023-06-26T21:09:37.713Z,2.58
2023-06-26T21:12:04.802Z,5.55
2023-06-26T21:14:31.978Z,2.10
2023-06-26T21:16:58.627Z,3.75
2023-06-26T21:19:25.696Z,3.63
2023-06-26T21:21:52.526Z,1.95
2023-06-26T21:24:19.126Z,4.13
2023-06-26T21:26:46.006Z,1.85
2023-06-26T21:29:12.593Z,3.53
2023-06-26T21:31:39.227Z,3.90
2023-06-26T21:34:06.052Z,6.15
2023-06-26T21:36:32.729Z,5.22
2023-06-26T21:38:59.620Z,2.85
2023-06-26T21:41:29.105Z,3.40
2023-06-26T21:43:55.671Z,3.15
2023-06-26T21:46:22.672Z,5.07
2023-06-26T21:48:49.330Z,3.10
2023-06-26T21:51:16.509Z,3.20
2023-06-26T21:53:43.014Z,2.47
2023-06-26T21:56:09.780Z,2.85
2023-06-26T21:58:36.380Z,2.40
2023-06-26T22:01:02.896Z,2.60
2023-06-26T22:03:29.579Z,3.55
2023-06-26T22:05:56.640Z,2.05
2023-06-26T22:08:23.509Z,2.58
2023-06-26T22:10:50.099Z,2.40
2023-06-26T22:13:16.829Z,3.28
2023-06-26T22:15:43.489Z,3.58
2023-06-26T22:18:10.833Z,3.45
2023-06-26T22:20:37.871Z,4.90
2023-06-26T22:23:04.360Z,3.58
2023-06-26T22:25:31.348Z,2.80
2023-06-26T22:27:57.945Z,2.38
2023-06-26T22:30:31.163Z,4.93
2023-06-26T22:32:58.145Z,4.03
2023-06-26T22:35:25.041Z,2.60
2023-06-26T22:37:52.070Z,2.38
2023-06-26T22:40:19.524Z,3.97
2023-06-26T22:42:46.212Z,4.72
2023-06-26T22:45:13.132Z,4.47
2023-06-26T22:47:44.658Z,3.20
2023-06-26T22:50:11.535Z,4.25
2023-06-26T22:52:38.773Z,5.38
2023-06-26T22:55:05.801Z,4.32
2023-06-26T22:57:34.717Z,5.63
2023-06-26T23:00:01.312Z,4.25
2023-06-26T23:02:27.998Z,7.55
2023-06-26T23:04:54.946Z,3.08
2023-06-26T23:07:22.106Z,2.85
2023-06-26T23:09:49.716Z,2.97
2023-06-26T23:12:16.907Z,4.93
2023-06-26T23:14:43.623Z,3.75
2023-06-26T23:17:12.286Z,7.30
2023-06-26T23:19:40.982Z,5.07
2023-06-26T23:22:10.266Z,3.90
2023-06-26T23:24:38.149Z,3.72
2023-06-26T23:27:09.875Z,6.15
2023-06-26T23:29:38.243Z,2.65
2023-06-26T23:32:09.296Z,4.00
2023-06-26T23:34:40.267Z,3.50
2023-06-26T23:37:13.711Z,3.65
2023-06-26T23:39:41.618Z,3.25
2023-06-26T23:42:08.231Z,4.43
2023-06-26T23:44:37.548Z,5.97
2023-06-26T23:47:05.379Z,5.60
2023-06-26T23:49:33.206Z,7.20
2023-06-26T23:52:00.186Z,5.95
2023-06-26T23:54:28.840Z,3.35
2023-06-26T23:56:56.178Z,2.88
2023-06-26T23:59:23.547Z,4.75
